This is the latest recevied weather packets stored in our database for station/object OK5TVR-5. If no packets are shown the sender has not sent any weather packets the latest 10 day(s).
| Time | Temp. | Humidity | Pressure | Rain* | Wind** | Luminosity | Snow |
|---|---|---|---|---|---|---|---|
| 1777856433 | 11.67° C | 76% | 1006.1 hPa | 0 mm | - | - | - |
| 1777855531 | 13.33° C | - | - | 0 mm | - | - | - |
| 1777855531 | 13.33° C | 71% | 1005.9 hPa | 0 mm | - | - | - |
| 1777854629 | 13.33° C | 70% | 1005.9 hPa | 0 mm | - | - | - |
| 1777853728 | 13.33° C | 73% | 1006 hPa | 0 mm | - | - | - |
| 1777853728 | 13.33° C | 73% | 1006 hPa | 0 mm | - | - | - |
| 1777852827 | 13.89° C | 68% | 1005.8 hPa | 0 mm | - | - | - |
| 1777851927 | 13.33° C | 72% | 1005.9 hPa | 0 mm | - | - | - |
| 1777851927 | 13.33° C | 72% | 1005.9 hPa | 0 mm | - | - | - |
| 1777851927 | 13.33° C | - | - | - | - | - | - |
| 1777851026 | 13.89° C | 70% | 1005.9 hPa | 0 mm | - | - | - |
| 1777851026 | 13.89° C | 70% | 1005.9 hPa | 0 mm | - | - | - |
| 1777850125 | 13.89° C | 67% | 1005.8 hPa | 0 mm | - | - | - |
| 1777850124 | 13.89° C | 67% | 1005.8 hPa | 0 mm | - | - | - |
| 1777849225 | 14.44° C | 64% | 1005.8 hPa | 0 mm | - | - | - |
| 1777849225 | 14.44° C | 64% | 1005.8 hPa | 0 mm | - | - | - |
| 1777848324 | - | - | - | - | - | - | - |
| 1777848324 | 15° C | 63% | 1005.7 hPa | 0 mm | - | - | - |
| 1777848323 | 15° C | 63% | 1005.7 hPa | 0 mm | - | - | - |
| 1777847421 | 15.56° C | 58% | 1004.5 hPa | 0 mm | - | - | - |
| 1777847421 | 15.56° C | 58% | 1004.5 hPa | 0 mm | - | - | - |
| 1777846520 | 16.11° C | 56% | 1004.5 hPa | 0 mm | - | - | - |
| 1777846520 | 16.11° C | 56% | 1004.5 hPa | 0 mm | - | - | - |
| 1777846520 | 16.11° C | 56% | 1004.5 hPa | 0 mm | - | - | - |
| 1777844825 | 15.56° C | 58% | 1004.6 hPa | 0 mm | - | - | - |
* Rain latest hour (hover to see other rain measurements)
** Current wind speed in m/s (hover to see current wind gust speed)